Time;durP1;ratioP1;P1;durP2;ratioP2;P2;SDS_P1;SDS_P2;PMS_P1;PMS_P2;Temp;Humidity;BMP_temperature;BMP_pressure;BME280_temperature;BME280_humidity;BME280_pressure;Samples;Min_cycle;Max_cycle;Signal;HPM_P1;HPM_P2
2021/11/30 00:02:05;;;;;;;;;;;20.10;99.90;;;;;;5086236;28;19949;-70
2021/11/30 00:04:32;;;;;;;;;;;20.10;99.90;;;;;;5078504;28;19920;-72
2021/11/30 00:06:59;;;;;;;;;;;20.10;99.90;;;;;;5076265;28;20287;-70
2021/11/30 00:12:08;;;;;;;;;;;20.10;99.90;;;;;;5061119;28;20275;-71
2021/11/30 00:14:36;;;;;;;;;;;20.10;99.90;;;;;;5053556;28;19999;-72
2021/11/30 00:17:03;;;;;;;;;;;20.10;99.90;;;;;;5053889;28;19925;-71
2021/11/30 00:19:30;;;;;;;;;;;20.10;99.90;;;;;;5055353;28;19912;-73
2021/11/30 00:21:57;;;;;;;;;;;20.10;99.90;;;;;;5054115;28;19979;-72
2021/11/30 00:24:27;;;;;;;;;;;20.10;99.90;;;;;;5055072;28;19913;-72
2021/11/30 00:26:54;;;;;;;;;;;20.10;99.90;;;;;;5054373;28;19951;-72
2021/11/30 00:29:20;;;;;;;;;;;20.10;99.90;;;;;;5054075;28;19933;-72
2021/11/30 00:31:47;;;;;;;;;;;20.00;99.90;;;;;;5054212;28;19977;-72
2021/11/30 00:34:14;;;;;;;;;;;19.90;99.90;;;;;;5053701;28;19920;-72
2021/11/30 00:36:41;;;;;;;;;;;19.80;99.90;;;;;;5055739;28;19920;-70
2021/11/30 00:39:08;;;;;;;;;;;19.80;99.90;;;;;;5054312;28;20378;-72
2021/11/30 00:41:35;;;;;;;;;;;19.70;99.90;;;;;;5054217;28;19952;-71
2021/11/30 00:44:02;;;;;;;;;;;19.80;99.90;;;;;;5053430;28;19939;-74
2021/11/30 00:46:37;;;;;;;;;;;19.70;99.90;;;;;;5064293;28;19917;-68
2021/11/30 00:49:04;;;;;;;;;;;19.60;99.90;;;;;;5053056;28;19921;-71
2021/11/30 00:51:32;;;;;;;;;;;19.70;99.90;;;;;;5053793;28;20367;-68
2021/11/30 00:53:59;;;;;;;;;;;19.70;99.90;;;;;;5053604;28;19913;-72
2021/11/30 00:56:26;;;;;;;;;;;19.80;99.90;;;;;;5053901;28;19914;-69
2021/11/30 00:58:53;;;;;;;;;;;19.90;99.90;;;;;;5052808;28;19917;-70
2021/11/30 01:01:20;;;;;;;;;;;20.00;99.90;;;;;;5054205;28;19913;-73
2021/11/30 01:03:47;;;;;;;;;;;19.90;99.90;;;;;;5053310;28;20387;-70
2021/11/30 01:06:15;;;;;;;;;;;19.90;99.90;;;;;;5053224;28;19912;-72
2021/11/30 01:08:41;;;;;;;;;;;19.90;99.90;;;;;;5052618;28;19921;-73
2021/11/30 01:11:08;;;;;;;;;;;20.00;99.90;;;;;;5053184;28;20365;-73
2021/11/30 01:13:35;;;;;;;;;;;20.00;99.90;;;;;;5052567;28;20257;-71
2021/11/30 01:16:03;;;;;;;;;;;20.00;99.90;;;;;;5053653;28;19913;-73
2021/11/30 01:18:29;;;;;;;;;;;20.00;99.90;;;;;;5053384;28;20360;-70
2021/11/30 01:20:56;;;;;;;;;;;20.10;99.90;;;;;;5053537;28;19971;-70
2021/11/30 01:23:25;;;;;;;;;;;20.10;99.90;;;;;;5041699;28;20268;-72
2021/11/30 01:25:52;;;;;;;;;;;20.10;99.90;;;;;;5053076;28;20011;-69
2021/11/30 01:28:19;;;;;;;;;;;20.10;99.90;;;;;;5052923;28;19979;-73
2021/11/30 01:30:46;;;;;;;;;;;20.20;99.90;;;;;;5053366;28;19920;-72
2021/11/30 01:33:12;;;;;;;;;;;20.20;99.90;;;;;;5053140;28;19916;-72
2021/11/30 01:35:43;;;;;;;;;;;20.20;99.90;;;;;;5052568;28;19978;-74
2021/11/30 01:38:10;;;;;;;;;;;20.20;99.90;;;;;;5053534;28;20346;-74
2021/11/30 01:40:38;;;;;;;;;;;20.10;99.90;;;;;;5048140;28;19924;-73
2021/11/30 01:43:08;;;;;;;;;;;20.10;99.90;;;;;;5052422;28;19917;-74
2021/11/30 01:50:36;;;;;;;;;;;20.00;99.90;;;;;;5051909;28;19952;-73
2021/11/30 01:53:04;;;;;;;;;;;20.00;99.90;;;;;;5053607;28;20003;-74
2021/11/30 01:55:31;;;;;;;;;;;19.90;99.90;;;;;;5052720;28;19913;-74
2021/11/30 01:57:59;;;;;;;;;;;19.90;99.90;;;;;;5052459;28;19956;-72
2021/11/30 02:00:26;;;;;;;;;;;19.90;99.90;;;;;;5043515;28;20363;-73
2021/11/30 02:02:53;;;;;;;;;;;19.90;99.90;;;;;;5049605;28;19932;-68
2021/11/30 02:05:19;;;;;;;;;;;19.90;99.90;;;;;;5050431;28;19921;-72
2021/11/30 02:07:46;;;;;;;;;;;19.80;99.90;;;;;;5056140;28;19926;-68
2021/11/30 02:10:14;;;;;;;;;;;19.70;99.90;;;;;;5074407;28;19921;-72
2021/11/30 02:12:42;;;;;;;;;;;19.70;99.90;;;;;;5071801;28;19928;-68
2021/11/30 02:15:10;;;;;;;;;;;19.70;99.90;;;;;;5070983;28;20354;-69
2021/11/30 02:17:37;;;;;;;;;;;19.70;99.90;;;;;;5059711;28;20417;-69
2021/11/30 02:20:04;;;;;;;;;;;19.80;99.90;;;;;;5076789;28;19916;-71
2021/11/30 02:22:31;;;;;;;;;;;19.80;99.90;;;;;;5086785;28;19908;-69
2021/11/30 02:24:58;;;;;;;;;;;19.80;99.90;;;;;;5079466;28;19955;-68
2021/11/30 02:27:25;;;;;;;;;;;19.80;99.90;;;;;;5083289;28;19908;-71
2021/11/30 02:29:51;;;;;;;;;;;19.70;99.90;;;;;;5077590;28;19964;-74
2021/11/30 02:32:21;;;;;;;;;;;19.70;99.90;;;;;;5075687;28;20283;-74
2021/11/30 02:34:47;;;;;;;;;;;19.80;99.90;;;;;;5072015;28;20480;-73
2021/11/30 02:37:22;;;;;;;;;;;19.90;99.90;;;;;;5067991;28;20317;-74
2021/11/30 02:39:48;;;;;;;;;;;19.90;99.90;;;;;;5085607;28;19920;-72
2021/11/30 02:42:15;;;;;;;;;;;19.90;99.90;;;;;;5077761;28;20335;-73
2021/11/30 02:44:43;;;;;;;;;;;19.80;99.90;;;;;;5082317;28;19946;-74
2021/11/30 02:47:11;;;;;;;;;;;19.60;99.90;;;;;;5078442;28;20271;-74
2021/11/30 02:49:39;;;;;;;;;;;19.60;99.90;;;;;;5075597;28;19975;-75
2021/11/30 02:52:08;;;;;;;;;;;19.60;99.90;;;;;;5067690;28;19913;-71
2021/11/30 02:54:36;;;;;;;;;;;19.60;99.90;;;;;;5072169;28;20327;-74
2021/11/30 02:57:05;;;;;;;;;;;19.60;99.90;;;;;;5090331;28;19965;-74
2021/11/30 02:59:33;;;;;;;;;;;19.60;99.90;;;;;;5086076;28;19936;-73
2021/11/30 03:02:07;;;;;;;;;;;19.60;99.90;;;;;;5065806;28;19912;-74
2021/11/30 03:04:34;;;;;;;;;;;19.60;99.90;;;;;;5075075;28;20015;-73
2021/11/30 03:07:01;;;;;;;;;;;19.60;99.90;;;;;;5073733;28;20031;-74
2021/11/30 03:09:27;;;;;;;;;;;19.60;99.90;;;;;;5073994;28;19956;-75
2021/11/30 03:11:54;;;;;;;;;;;19.60;99.90;;;;;;5074072;28;19961;-74
2021/11/30 03:14:22;;;;;;;;;;;19.50;99.90;;;;;;5074611;28;19919;-73
2021/11/30 03:16:50;;;;;;;;;;;19.50;99.90;;;;;;5074212;28;19984;-73
2021/11/30 03:19:17;;;;;;;;;;;19.60;99.90;;;;;;5079343;28;19919;-75
2021/11/30 03:21:44;;;;;;;;;;;19.60;99.90;;;;;;5074220;28;20003;-73
2021/11/30 03:24:11;;;;;;;;;;;19.80;99.90;;;;;;5074354;28;20343;-72
2021/11/30 03:26:38;;;;;;;;;;;19.70;99.90;;;;;;5071060;28;19913;-74
2021/11/30 03:29:04;;;;;;;;;;;19.80;99.90;;;;;;5074485;28;20416;-74
2021/11/30 03:31:34;;;;;;;;;;;19.80;99.90;;;;;;5076175;28;19943;-73
2021/11/30 03:34:01;;;;;;;;;;;19.80;99.90;;;;;;5073869;28;19912;-72
2021/11/30 03:36:29;;;;;;;;;;;19.80;99.90;;;;;;5072888;28;19934;-72
2021/11/30 03:38:56;;;;;;;;;;;19.80;99.90;;;;;;5074059;28;20290;-73
2021/11/30 03:41:24;;;;;;;;;;;19.80;99.90;;;;;;5073521;28;19920;-74
2021/11/30 03:43:50;;;;;;;;;;;19.70;99.90;;;;;;5074808;28;19990;-74
2021/11/30 03:46:17;;;;;;;;;;;19.80;99.90;;;;;;5085208;28;19942;-73
2021/11/30 03:48:44;;;;;;;;;;;19.80;99.90;;;;;;5072888;28;19925;-74
2021/11/30 03:51:11;;;;;;;;;;;19.80;99.90;;;;;;5073783;28;19920;-74
2021/11/30 03:53:37;;;;;;;;;;;19.80;99.90;;;;;;5106180;28;20382;-74
2021/11/30 03:56:04;;;;;;;;;;;19.70;99.90;;;;;;5073157;28;20363;-73
2021/11/30 03:58:31;;;;;;;;;;;19.80;99.90;;;;;;5073324;28;19958;-74
2021/11/30 04:00:58;;;;;;;;;;;19.90;99.90;;;;;;5074955;28;19912;-72
2021/11/30 04:03:27;;;;;;;;;;;19.90;99.90;;;;;;5072834;28;20256;-72
2021/11/30 04:05:54;;;;;;;;;;;20.00;99.90;;;;;;5080348;28;19944;-70
2021/11/30 04:08:21;;;;;;;;;;;20.00;99.90;;;;;;5076263;28;19935;-71
2021/11/30 04:10:48;;;;;;;;;;;20.20;99.90;;;;;;5072625;28;20271;-70
2021/11/30 04:13:14;;;;;;;;;;;20.20;99.90;;;;;;5069800;28;20042;-69
2021/11/30 04:15:41;;;;;;;;;;;20.20;99.90;;;;;;5062381;28;19920;-71
2021/11/30 04:18:08;;;;;;;;;;;20.20;99.90;;;;;;5072945;28;19912;-70
2021/11/30 04:20:35;;;;;;;;;;;20.20;99.90;;;;;;5085049;28;20435;-71
2021/11/30 04:23:01;;;;;;;;;;;20.30;99.90;;;;;;5082994;28;19970;-73
2021/11/30 04:25:28;;;;;;;;;;;20.30;99.90;;;;;;5076274;28;19912;-71
2021/11/30 04:27:55;;;;;;;;;;;20.40;99.90;;;;;;5073532;28;20007;-71
2021/11/30 04:30:22;;;;;;;;;;;20.40;99.90;;;;;;5067915;28;20011;-71
2021/11/30 04:32:48;;;;;;;;;;;20.50;99.90;;;;;;5066768;28;19912;-73
2021/11/30 04:35:15;;;;;;;;;;;20.40;99.90;;;;;;5084486;28;19956;-69
2021/11/30 04:37:42;;;;;;;;;;;20.40;99.90;;;;;;5086519;28;19919;-72
2021/11/30 04:40:09;;;;;;;;;;;20.30;99.90;;;;;;5078381;28;19916;-69
2021/11/30 04:42:38;;;;;;;;;;;20.40;99.90;;;;;;5075631;28;19913;-72
2021/11/30 04:45:10;;;;;;;;;;;20.40;99.90;;;;;;5072162;28;19917;-72
2021/11/30 04:47:39;;;;;;;;;;;20.50;99.90;;;;;;5062779;28;19971;-72
2021/11/30 04:50:11;;;;;;;;;;;20.50;99.90;;;;;;5073518;28;19929;-73
2021/11/30 04:52:40;;;;;;;;;;;20.50;99.90;;;;;;5088140;28;20351;-73
2021/11/30 04:55:07;;;;;;;;;;;20.50;99.90;;;;;;5080618;28;19920;-73
2021/11/30 04:57:34;;;;;;;;;;;20.50;99.90;;;;;;5077505;28;19916;-73
2021/11/30 05:00:01;;;;;;;;;;;20.50;99.90;;;;;;5075294;28;19921;-74
2021/11/30 05:02:27;;;;;;;;;;;20.50;99.90;;;;;;5072300;28;20429;-74
2021/11/30 05:04:54;;;;;;;;;;;20.50;99.90;;;;;;5061552;28;19920;-74
2021/11/30 05:07:21;;;;;;;;;;;20.50;99.90;;;;;;5079390;28;19912;-74
2021/11/30 05:09:47;;;;;;;;;;;20.50;99.90;;;;;;5083114;28;20039;-74
2021/11/30 05:12:14;;;;;;;;;;;20.60;99.90;;;;;;5076441;28;19923;-73
2021/11/30 05:14:40;;;;;;;;;;;20.60;99.90;;;;;;5080455;28;19912;-73
2021/11/30 05:17:07;;;;;;;;;;;20.60;99.90;;;;;;5073997;28;19920;-73
2021/11/30 05:19:34;;;;;;;;;;;20.60;99.90;;;;;;5072243;28;19913;-74
2021/11/30 05:22:01;;;;;;;;;;;20.60;99.90;;;;;;5072168;28;19958;-73
2021/11/30 05:24:27;;;;;;;;;;;20.70;99.90;;;;;;5073510;28;19932;-74
2021/11/30 05:26:56;;;;;;;;;;;20.60;99.90;;;;;;5080989;28;19965;-72
2021/11/30 05:29:23;;;;;;;;;;;20.60;99.90;;;;;;5085324;28;19947;-73
2021/11/30 05:31:50;;;;;;;;;;;20.70;99.90;;;;;;5078119;28;20015;-73
2021/11/30 05:34:17;;;;;;;;;;;20.70;99.90;;;;;;5074785;28;19955;-74
2021/11/30 05:36:44;;;;;;;;;;;20.60;99.90;;;;;;5071440;28;19943;-73
2021/11/30 05:39:11;;;;;;;;;;;20.60;99.90;;;;;;5064538;28;19927;-72
2021/11/30 05:41:37;;;;;;;;;;;20.60;99.90;;;;;;5037926;28;19920;-73
2021/11/30 05:44:04;;;;;;;;;;;20.50;99.90;;;;;;5087187;28;19912;-73
2021/11/30 05:46:35;;;;;;;;;;;20.60;99.90;;;;;;5082987;28;19919;-71
2021/11/30 05:49:02;;;;;;;;;;;20.60;99.90;;;;;;5072135;28;19931;-69
2021/11/30 05:51:29;;;;;;;;;;;20.60;99.90;;;;;;5072867;28;19918;-73
2021/11/30 05:53:55;;;;;;;;;;;20.60;99.90;;;;;;5069086;28;19958;-72
2021/11/30 05:56:22;;;;;;;;;;;20.60;99.90;;;;;;5058176;28;20402;-68
2021/11/30 05:58:49;;;;;;;;;;;20.50;99.90;;;;;;5074693;28;19954;-72
2021/11/30 06:01:25;;;;;;;;;;;20.50;99.90;;;;;;5086215;28;19969;-70
2021/11/30 06:03:57;;;;;;;;;;;20.50;99.90;;;;;;5077006;28;19923;-71
2021/11/30 06:06:24;;;;;;;;;;;20.50;99.90;;;;;;5079561;28;19922;-72
2021/11/30 06:08:51;;;;;;;;;;;20.50;99.90;;;;;;5068340;28;19928;-69
2021/11/30 06:11:21;;;;;;;;;;;20.40;99.90;;;;;;5068492;28;20300;-72
2021/11/30 06:13:48;;;;;;;;;;;20.40;99.90;;;;;;5068869;28;19917;-69
2021/11/30 06:16:15;;;;;;;;;;;20.50;99.90;;;;;;5068875;28;19916;-71
2021/11/30 06:18:41;;;;;;;;;;;20.40;99.90;;;;;;5068919;28;20275;-73
2021/11/30 06:21:10;;;;;;;;;;;20.50;99.90;;;;;;5069348;28;20319;-72
2021/11/30 06:23:38;;;;;;;;;;;20.50;99.90;;;;;;5068849;28;19921;-71
2021/11/30 06:26:06;;;;;;;;;;;20.40;99.90;;;;;;5068767;28;19917;-72
2021/11/30 06:28:32;;;;;;;;;;;20.40;99.90;;;;;;5069800;28;19917;-68
2021/11/30 06:30:59;;;;;;;;;;;20.40;99.90;;;;;;5069303;28;19925;-71
2021/11/30 06:33:26;;;;;;;;;;;20.40;99.90;;;;;;5070186;28;19938;-72
2021/11/30 06:35:53;;;;;;;;;;;20.40;99.90;;;;;;5079559;28;19912;-73
2021/11/30 06:38:19;;;;;;;;;;;20.40;99.90;;;;;;5068851;28;19938;-69
2021/11/30 06:40:46;;;;;;;;;;;20.40;99.90;;;;;;5069288;28;19959;-69
2021/11/30 06:43:14;;;;;;;;;;;20.40;99.90;;;;;;5068679;28;19913;-72
2021/11/30 06:45:41;;;;;;;;;;;20.40;99.90;;;;;;5068811;28;19919;-69
2021/11/30 06:48:08;;;;;;;;;;;20.40;99.90;;;;;;5068807;28;19913;-71
2021/11/30 06:50:35;;;;;;;;;;;20.30;99.90;;;;;;5072823;28;19920;-71
2021/11/30 06:53:02;;;;;;;;;;;20.20;99.90;;;;;;5076323;28;20004;-72
2021/11/30 06:55:29;;;;;;;;;;;20.30;99.90;;;;;;5068379;28;19916;-72
2021/11/30 06:57:56;;;;;;;;;;;20.20;99.90;;;;;;5073278;28;20271;-71
2021/11/30 07:00:23;;;;;;;;;;;20.20;99.90;;;;;;5068641;28;19970;-71
2021/11/30 07:02:51;;;;;;;;;;;20.20;99.90;;;;;;5069042;28;19919;-71
2021/11/30 07:15:42;;;;;;;;;;;19.90;99.90;;;;;;5072144;28;19916;-72
2021/11/30 07:18:11;;;;;;;;;;;20.00;99.90;;;;;;5071641;28;19916;-72
2021/11/30 07:20:38;;;;;;;;;;;20.00;99.90;;;;;;5071811;28;19939;-73
2021/11/30 07:23:05;;;;;;;;;;;19.90;99.90;;;;;;5072167;28;19916;-72
2021/11/30 07:25:32;;;;;;;;;;;19.90;99.90;;;;;;5075092;28;19977;-71
2021/11/30 07:27:59;;;;;;;;;;;19.90;99.90;;;;;;5088758;28;19963;-73
2021/11/30 07:30:26;;;;;;;;;;;19.90;99.90;;;;;;5073580;28;19947;-70
2021/11/30 07:32:53;;;;;;;;;;;19.80;99.90;;;;;;5071931;28;20015;-72
2021/11/30 07:35:23;;;;;;;;;;;19.80;99.90;;;;;;5071318;28;19919;-73
2021/11/30 07:37:50;;;;;;;;;;;19.70;99.90;;;;;;5071963;28;19916;-74
2021/11/30 07:40:18;;;;;;;;;;;19.70;99.90;;;;;;5071438;28;19920;-73
2021/11/30 07:42:45;;;;;;;;;;;19.70;99.90;;;;;;5072900;28;19917;-72
2021/11/30 07:45:12;;;;;;;;;;;19.70;99.90;;;;;;5082876;28;19923;-74
2021/11/30 07:47:39;;;;;;;;;;;19.70;99.90;;;;;;5072502;28;19920;-73
2021/11/30 07:50:07;;;;;;;;;;;19.70;99.90;;;;;;5075768;28;20418;-73
2021/11/30 07:52:39;;;;;;;;;;;19.60;99.90;;;;;;5071742;28;19936;-71
2021/11/30 07:55:07;;;;;;;;;;;19.60;99.90;;;;;;5070747;28;19920;-73
2021/11/30 07:57:33;;;;;;;;;;;19.70;99.90;;;;;;5071662;28;19917;-69
2021/11/30 08:00:00;;;;;;;;;;;19.60;99.90;;;;;;5071634;28;19912;-72
2021/11/30 08:02:27;;;;;;;;;;;19.70;99.90;;;;;;5076465;28;20131;-72
2021/11/30 08:04:53;;;;;;;;;;;19.60;99.90;;;;;;5078585;28;19913;-73
2021/11/30 08:07:20;;;;;;;;;;;19.60;99.90;;;;;;5073183;28;19955;-71
2021/11/30 08:09:49;;;;;;;;;;;19.60;99.90;;;;;;5074093;28;19982;-72
2021/11/30 08:12:16;;;;;;;;;;;19.70;99.90;;;;;;5074196;28;20268;-72
2021/11/30 08:14:43;;;;;;;;;;;19.60;99.90;;;;;;5073144;28;19919;-71
2021/11/30 08:17:13;;;;;;;;;;;19.60;99.90;;;;;;5073023;28;19931;-72
2021/11/30 08:19:41;;;;;;;;;;;19.60;99.90;;;;;;5073488;28;19913;-71
2021/11/30 08:22:08;;;;;;;;;;;19.60;99.90;;;;;;5083554;28;20409;-72
2021/11/30 08:24:35;;;;;;;;;;;19.60;99.90;;;;;;5081417;28;19912;-69
2021/11/30 08:27:03;;;;;;;;;;;19.50;99.90;;;;;;5072762;28;20478;-72
2021/11/30 08:29:31;;;;;;;;;;;19.60;99.90;;;;;;5073130;28;19920;-73
2021/11/30 08:31:58;;;;;;;;;;;19.60;99.90;;;;;;5072202;28;19970;-72
2021/11/30 08:34:25;;;;;;;;;;;19.50;99.90;;;;;;5073209;28;19959;-73
2021/11/30 08:36:51;;;;;;;;;;;19.60;99.90;;;;;;5073798;28;19916;-72
2021/11/30 08:39:18;;;;;;;;;;;19.60;99.90;;;;;;5084076;28;19912;-68
2021/11/30 08:41:45;;;;;;;;;;;19.50;99.90;;;;;;5072771;28;19917;-69
2021/11/30 08:44:12;;;;;;;;;;;19.50;99.90;;;;;;5072810;28;19912;-72
2021/11/30 08:46:38;;;;;;;;;;;19.50;99.90;;;;;;5072418;28;20048;-73
2021/11/30 08:49:05;;;;;;;;;;;19.40;99.90;;;;;;5072283;28;19927;-70
2021/11/30 08:51:32;;;;;;;;;;;19.40;99.90;;;;;;5073011;28;19923;-72
2021/11/30 08:53:59;;;;;;;;;;;19.40;99.90;;;;;;5074854;28;19973;-69
2021/11/30 08:56:25;;;;;;;;;;;19.40;99.90;;;;;;5079278;28;20345;-71
2021/11/30 08:58:52;;;;;;;;;;;19.40;99.90;;;;;;5072088;28;19919;-70
2021/11/30 09:01:19;;;;;;;;;;;19.40;99.90;;;;;;5072267;28;19966;-71
2021/11/30 09:03:46;;;;;;;;;;;19.30;99.90;;;;;;5075512;28;20424;-68
2021/11/30 09:06:13;;;;;;;;;;;19.40;99.90;;;;;;5070806;28;19916;-72
2021/11/30 09:08:40;;;;;;;;;;;19.30;99.90;;;;;;5071635;28;19971;-69
2021/11/30 09:11:07;;;;;;;;;;;19.40;99.90;;;;;;5072112;28;19935;-72
2021/11/30 09:13:33;;;;;;;;;;;19.40;99.90;;;;;;5077147;28;19971;-69
2021/11/30 09:16:00;;;;;;;;;;;19.40;99.90;;;;;;5071102;28;19912;-72
2021/11/30 09:18:30;;;;;;;;;;;19.50;99.90;;;;;;5076824;28;19920;-71
2021/11/30 09:21:00;;;;;;;;;;;19.50;99.90;;;;;;5072241;28;19919;-73
2021/11/30 09:23:30;;;;;;;;;;;19.60;99.90;;;;;;5071794;28;19916;-71
2021/11/30 09:25:57;;;;;;;;;;;19.60;99.90;;;;;;5070935;28;19979;-72
2021/11/30 09:28:25;;;;;;;;;;;19.60;99.90;;;;;;5073153;28;19934;-70
2021/11/30 09:30:51;;;;;;;;;;;19.60;99.90;;;;;;5082261;28;19924;-73
2021/11/30 09:33:18;;;;;;;;;;;19.60;99.90;;;;;;5072153;28;20287;-72
2021/11/30 09:35:46;;;;;;;;;;;19.50;99.90;;;;;;5070713;28;20404;-71
2021/11/30 09:38:13;;;;;;;;;;;19.50;99.90;;;;;;5071824;28;19912;-70
2021/11/30 09:40:40;;;;;;;;;;;19.50;99.90;;;;;;5071444;28;20291;-73
2021/11/30 09:43:08;;;;;;;;;;;19.40;99.90;;;;;;5072166;28;20353;-72
2021/11/30 09:45:37;;;;;;;;;;;19.40;99.90;;;;;;5071672;28;19920;-68
2021/11/30 09:48:10;;;;;;;;;;;19.40;99.90;;;;;;5081678;28;19913;-67
2021/11/30 09:50:38;;;;;;;;;;;19.40;99.90;;;;;;5071277;28;20341;-71
2021/11/30 09:53:05;;;;;;;;;;;19.40;99.90;;;;;;5071346;28;19916;-72
2021/11/30 09:55:32;;;;;;;;;;;19.40;99.90;;;;;;5069669;28;19974;-69
2021/11/30 09:57:59;;;;;;;;;;;19.40;99.90;;;;;;5071573;28;19913;-74
2021/11/30 10:00:28;;;;;;;;;;;19.30;99.90;;;;;;5070629;28;20007;-72
2021/11/30 10:02:55;;;;;;;;;;;19.30;99.90;;;;;;5077731;28;19923;-74
2021/11/30 10:05:22;;;;;;;;;;;19.30;99.90;;;;;;5075900;28;19909;-72
2021/11/30 10:07:51;;;;;;;;;;;19.30;99.90;;;;;;5077893;28;20282;-70
2021/11/30 10:10:19;;;;;;;;;;;19.30;99.90;;;;;;5073855;28;19932;-73
2021/11/30 10:12:53;;;;;;;;;;;19.30;99.90;;;;;;5070851;28;20370;-74
2021/11/30 10:15:20;;;;;;;;;;;19.30;99.90;;;;;;5070913;28;20350;-71
2021/11/30 10:17:46;;;;;;;;;;;19.20;99.90;;;;;;5071398;28;19912;-70
2021/11/30 10:20:14;;;;;;;;;;;19.30;99.90;;;;;;5072237;28;19962;-73
2021/11/30 10:22:53;;;;;;;;;;;19.30;99.90;;;;;;5081942;28;19921;-75
2021/11/30 10:25:23;;;;;;;;;;;19.30;99.90;;;;;;5071009;28;19915;-70
2021/11/30 10:27:54;;;;;;;;;;;19.30;99.90;;;;;;5070963;28;19926;-71
2021/11/30 10:30:22;;;;;;;;;;;19.30;99.90;;;;;;5071852;28;20359;-73
2021/11/30 10:32:51;;;;;;;;;;;19.40;99.90;;;;;;5071308;28;19913;-73
2021/11/30 10:35:18;;;;;;;;;;;19.40;99.90;;;;;;5060497;28;19913;-70
2021/11/30 10:37:45;;;;;;;;;;;19.40;99.90;;;;;;5054977;28;19922;-73
2021/11/30 10:40:17;;;;;;;;;;;19.40;99.90;;;;;;5053217;28;20339;-75
2021/11/30 10:42:49;;;;;;;;;;;19.40;99.90;;;;;;5055018;28;19939;-71
2021/11/30 10:45:27;;;;;;;;;;;19.30;99.90;;;;;;5063775;28;19908;-70
2021/11/30 10:48:00;;;;;;;;;;;19.30;99.90;;;;;;5074671;28;19912;-73
2021/11/30 10:50:32;;;;;;;;;;;19.30;99.90;;;;;;5075575;28;19920;-73
2021/11/30 10:53:00;;;;;;;;;;;19.30;99.90;;;;;;5074986;28;19997;-74
2021/11/30 10:55:28;;;;;;;;;;;19.30;99.90;;;;;;5073147;28;19912;-74
2021/11/30 10:58:01;;;;;;;;;;;19.30;99.90;;;;;;5074710;28;19920;-72
2021/11/30 11:00:30;;;;;;;;;;;19.30;99.90;;;;;;5075364;28;19966;-69
2021/11/30 11:05:30;;;;;;;;;;;19.30;99.90;;;;;;5075020;28;19912;-68
2021/11/30 11:07:58;;;;;;;;;;;19.30;99.90;;;;;;5073417;28;19926;-72
2021/11/30 11:10:25;;;;;;;;;;;19.20;99.90;;;;;;5071450;28;19921;-70
2021/11/30 11:12:53;;;;;;;;;;;19.20;99.90;;;;;;5069651;28;20291;-70
2021/11/30 11:15:39;;;;;;;;;;;19.20;99.90;;;;;;5073047;28;19913;-72
2021/11/30 11:18:25;;;;;;;;;;;19.20;99.90;;;;;;5071559;28;20256;-72
2021/11/30 11:21:08;;;;;;;;;;;19.30;99.90;;;;;;5070605;28;19913;-71
2021/11/30 11:23:35;;;;;;;;;;;19.30;99.90;;;;;;5073291;28;19923;-71
2021/11/30 11:26:20;;;;;;;;;;;19.30;99.90;;;;;;5070173;28;19964;-73
2021/11/30 11:28:48;;;;;;;;;;;19.30;99.90;;;;;;5072901;28;19924;-75
2021/11/30 11:31:15;;;;;;;;;;;19.30;99.90;;;;;;5070887;28;20003;-75
2021/11/30 11:33:42;;;;;;;;;;;19.30;99.90;;;;;;5072945;28;19919;-75
2021/11/30 11:36:09;;;;;;;;;;;19.30;99.90;;;;;;5069933;28;20560;-75
2021/11/30 11:38:35;;;;;;;;;;;19.30;99.90;;;;;;5071819;28;20019;-72
2021/11/30 11:41:02;;;;;;;;;;;19.30;99.90;;;;;;5069861;28;20037;-70
2021/11/30 11:43:29;;;;;;;;;;;19.20;99.90;;;;;;5072632;28;20302;-72
2021/11/30 11:45:56;;;;;;;;;;;19.20;99.90;;;;;;5069646;28;19913;-75
2021/11/30 11:48:26;;;;;;;;;;;19.30;99.90;;;;;;5050862;28;20287;-75
2021/11/30 11:50:55;;;;;;;;;;;19.30;99.90;;;;;;5070539;28;19912;-74
2021/11/30 11:53:23;;;;;;;;;;;19.30;99.90;;;;;;5072279;28;20291;-75
2021/11/30 11:56:08;;;;;;;;;;;19.30;99.90;;;;;;5070475;28;20426;-69
2021/11/30 11:58:35;;;;;;;;;;;19.30;99.90;;;;;;5072217;28;20318;-71
2021/11/30 12:01:02;;;;;;;;;;;19.30;99.90;;;;;;5070341;28;19920;-68
2021/11/30 12:04:01;;;;;;;;;;;19.20;99.90;;;;;;5055373;28;20359;-70
2021/11/30 12:06:29;;;;;;;;;;;19.20;99.90;;;;;;5041897;28;19917;-68
2021/11/30 12:09:14;;;;;;;;;;;19.20;99.90;;;;;;5072947;28;20351;-68
2021/11/30 12:11:44;;;;;;;;;;;19.20;99.90;;;;;;5073404;28;19912;-68
2021/11/30 12:14:15;;;;;;;;;;;19.20;99.90;;;;;;5073690;28;19912;-69
2021/11/30 12:17:00;;;;;;;;;;;19.20;99.90;;;;;;5073888;28;19912;-68
2021/11/30 12:19:28;;;;;;;;;;;19.20;99.90;;;;;;5073311;28;19927;-71
2021/11/30 12:21:55;;;;;;;;;;;19.20;99.90;;;;;;5073761;28;20390;-71
2021/11/30 12:24:38;;;;;;;;;;;19.20;99.90;;;;;;5073244;28;20045;-72
2021/11/30 12:27:16;;;;;;;;;;;19.20;99.90;;;;;;5065178;28;19913;-72
2021/11/30 12:29:43;;;;;;;;;;;19.20;99.90;;;;;;5073278;28;20448;-69
2021/11/30 12:32:15;;;;;;;;;;;19.20;99.90;;;;;;5073409;28;20011;-68
2021/11/30 12:34:47;;;;;;;;;;;19.20;99.90;;;;;;5073154;28;19912;-69
2021/11/30 12:37:18;;;;;;;;;;;19.20;99.90;;;;;;5073654;28;19912;-72
2021/11/30 12:40:04;;;;;;;;;;;19.20;99.90;;;;;;5071282;28;20375;-69
2021/11/30 12:42:31;;;;;;;;;;;19.20;99.90;;;;;;5073100;28;19978;-67
2021/11/30 12:44:59;;;;;;;;;;;19.20;99.90;;;;;;5072949;28;20290;-71
2021/11/30 12:47:27;;;;;;;;;;;19.20;99.90;;;;;;5072237;28;19916;-68
2021/11/30 12:49:54;;;;;;;;;;;19.20;99.90;;;;;;5072504;28;19920;-68
2021/11/30 12:52:21;;;;;;;;;;;19.20;99.90;;;;;;5073338;28;20050;-67
2021/11/30 12:55:13;;;;;;;;;;;19.20;99.90;;;;;;5072568;28;19916;-72
2021/11/30 12:57:42;;;;;;;;;;;19.20;99.90;;;;;;5072666;28;19912;-69
2021/11/30 13:00:12;;;;;;;;;;;19.20;99.90;;;;;;5071956;28;19913;-68
2021/11/30 13:02:41;;;;;;;;;;;19.20;99.90;;;;;;5072768;28;19919;-70
2021/11/30 13:05:15;;;;;;;;;;;19.20;99.90;;;;;;5071786;28;19995;-71
2021/11/30 13:07:48;;;;;;;;;;;19.30;99.90;;;;;;5072413;28;19919;-69
2021/11/30 13:10:23;;;;;;;;;;;19.20;99.90;;;;;;5079604;28;19995;-67
2021/11/30 13:12:50;;;;;;;;;;;19.20;99.90;;;;;;5072423;28;20007;-69
2021/11/30 13:15:18;;;;;;;;;;;19.30;99.90;;;;;;5062085;28;20131;-70
2021/11/30 13:17:45;;;;;;;;;;;19.30;99.90;;;;;;5072354;28;19919;-68
2021/11/30 13:20:13;;;;;;;;;;;19.30;99.90;;;;;;5072536;28;19917;-70
2021/11/30 13:22:45;;;;;;;;;;;19.30;99.90;;;;;;5072485;28;19916;-74
2021/11/30 13:25:17;;;;;;;;;;;19.30;99.90;;;;;;5071545;28;19916;-72
2021/11/30 13:27:51;;;;;;;;;;;19.30;99.90;;;;;;5072205;28;19959;-68
2021/11/30 13:30:19;;;;;;;;;;;19.30;99.90;;;;;;5072251;28;20015;-69
2021/11/30 13:32:49;;;;;;;;;;;19.30;99.90;;;;;;5071809;28;19909;-68
2021/11/30 13:35:16;;;;;;;;;;;19.30;99.90;;;;;;5072344;28;19920;-70
2021/11/30 13:37:52;;;;;;;;;;;19.30;99.90;;;;;;5071131;28;19926;-68
2021/11/30 13:40:37;;;;;;;;;;;19.30;99.90;;;;;;5071973;28;19919;-71
2021/11/30 13:43:07;;;;;;;;;;;19.20;99.90;;;;;;5071643;28;20371;-70
2021/11/30 13:45:36;;;;;;;;;;;19.20;99.90;;;;;;5072293;28;20007;-70
2021/11/30 13:48:03;;;;;;;;;;;19.20;99.90;;;;;;5071368;28;19915;-72
2021/11/30 13:50:30;;;;;;;;;;;19.20;99.90;;;;;;5072081;28;19949;-72
2021/11/30 13:53:12;;;;;;;;;;;19.20;99.90;;;;;;5071661;28;19916;-71
2021/11/30 13:55:40;;;;;;;;;;;19.20;99.90;;;;;;5063587;28;20271;-67
2021/11/30 13:58:13;;;;;;;;;;;19.10;99.90;;;;;;5071545;28;20011;-68
2021/11/30 14:00:47;;;;;;;;;;;19.20;99.90;;;;;;5072176;28;19919;-68
2021/11/30 14:03:14;;;;;;;;;;;19.10;99.90;;;;;;5071535;28;20370;-71
2021/11/30 14:05:41;;;;;;;;;;;19.10;99.90;;;;;;5072037;28;19917;-69
2021/11/30 14:08:08;;;;;;;;;;;19.10;99.90;;;;;;5071210;28;20287;-70
2021/11/30 14:10:39;;;;;;;;;;;19.10;99.90;;;;;;5071561;28;19920;-71
2021/11/30 14:13:06;;;;;;;;;;;19.10;99.90;;;;;;5071423;28;19954;-70
2021/11/30 14:15:32;;;;;;;;;;;19.10;99.90;;;;;;5072104;28;19950;-72
2021/11/30 14:18:03;;;;;;;;;;;19.10;99.90;;;;;;5071365;28;20274;-71
2021/11/30 14:20:30;;;;;;;;;;;19.10;99.90;;;;;;5061232;28;19924;-71
2021/11/30 14:22:57;;;;;;;;;;;19.10;99.90;;;;;;5071390;28;19966;-72
2021/11/30 14:25:25;;;;;;;;;;;19.10;99.90;;;;;;5071601;28;20007;-72
2021/11/30 14:27:51;;;;;;;;;;;19.20;99.90;;;;;;5071203;28;19912;-70
2021/11/30 14:30:18;;;;;;;;;;;19.10;99.90;;;;;;5071367;28;19920;-73
2021/11/30 14:32:45;;;;;;;;;;;19.20;99.90;;;;;;5071662;28;19912;-69
2021/11/30 14:35:13;;;;;;;;;;;19.10;99.90;;;;;;5071384;28;19917;-74
2021/11/30 14:37:56;;;;;;;;;;;19.10;99.90;;;;;;5071875;28;19947;-69
2021/11/30 14:40:29;;;;;;;;;;;19.20;99.90;;;;;;5071589;28;19920;-69
2021/11/30 14:43:04;;;;;;;;;;;19.20;99.90;;;;;;5071362;28;19918;-72
2021/11/30 14:45:47;;;;;;;;;;;19.10;99.90;;;;;;5071649;28;20343;-72